Time;durP1;ratioP1;P1;durP2;ratioP2;P2;SDS_P1;SDS_P2;PMS_P1;PMS_P2;Temp;Humidity;BMP_temperature;BMP_pressure;BME280_temperature;BME280_humidity;BME280_pressure;Samples;Min_cycle;Max_cycle;Signal;HPM_P1;HPM_P2
2021/12/10 00:00:42;;;;;;;3.92;2.10;;;20.90;48.10;;;;;;5101673;28;20059;-74
2021/12/10 00:03:15;;;;;;;4.65;2.65;;;20.90;48.00;;;;;;5128984;27;20556;-75
2021/12/10 00:05:50;;;;;;;4.18;2.25;;;20.90;48.00;;;;;;5102061;28;20062;-75
2021/12/10 00:08:16;;;;;;;5.15;2.60;;;20.90;47.90;;;;;;5102890;28;20580;-75
2021/12/10 00:10:45;;;;;;;5.00;2.28;;;20.90;48.00;;;;;;5100528;28;20036;-75
2021/12/10 00:13:12;;;;;;;3.92;2.20;;;20.90;47.90;;;;;;5100533;28;20562;-76
2021/12/10 00:15:40;;;;;;;3.63;2.20;;;20.90;47.90;;;;;;5102278;28;20059;-74
2021/12/10 00:18:10;;;;;;;5.90;2.40;;;20.90;47.90;;;;;;5102194;28;20036;-75
2021/12/10 00:20:38;;;;;;;4.80;2.45;;;21.00;47.90;;;;;;5102034;28;20036;-75
2021/12/10 00:23:19;;;;;;;4.07;2.53;;;21.00;48.00;;;;;;5098871;28;20044;-75
2021/12/10 00:25:50;;;;;;;4.95;2.10;;;20.90;47.90;;;;;;5101060;28;20297;-72
2021/12/10 00:28:21;;;;;;;5.68;2.40;;;21.00;48.00;;;;;;5104006;28;20040;-73
2021/12/10 00:31:18;;;;;;;5.10;2.17;;;21.00;48.00;;;;;;5101730;28;20047;-67
2021/12/10 00:33:46;;;;;;;4.25;2.22;;;20.90;47.90;;;;;;5099715;28;20512;-72
2021/12/10 00:36:12;;;;;;;3.35;2.10;;;20.90;48.00;;;;;;5102185;28;20498;-74
2021/12/10 00:38:39;;;;;;;2.30;1.85;;;20.90;48.00;;;;;;5100702;28;20075;-75
2021/12/10 00:41:06;;;;;;;2.83;2.03;;;20.90;48.00;;;;;;5098492;28;20431;-75
2021/12/10 00:43:39;;;;;;;4.05;2.00;;;20.90;48.00;;;;;;5103570;28;20028;-74
2021/12/10 00:46:05;;;;;;;4.03;1.90;;;20.90;48.00;;;;;;5102854;28;20046;-76
2021/12/10 00:48:30;;;;;;;3.00;2.00;;;20.90;48.00;;;;;;5103580;28;20051;-70
2021/12/10 00:50:57;;;;;;;2.42;1.75;;;20.90;48.00;;;;;;5102293;28;20035;-74
2021/12/10 00:53:23;;;;;;;3.58;2.20;;;20.90;48.00;;;;;;5105809;28;20039;-75
2021/12/10 00:55:49;;;;;;;2.95;2.05;;;20.90;48.00;;;;;;5103158;28;20043;-75
2021/12/10 00:58:16;;;;;;;5.22;2.20;;;20.90;47.90;;;;;;5104696;28;20067;-74
2021/12/10 01:00:47;;;;;;;3.15;2.10;;;20.90;47.90;;;;;;5100859;28;20368;-73
2021/12/10 01:03:17;;;;;;;4.80;2.00;;;20.90;47.90;;;;;;5102611;28;20035;-75
2021/12/10 01:05:47;;;;;;;6.30;1.83;;;20.90;47.80;;;;;;5102369;28;20134;-75
2021/12/10 01:08:13;;;;;;;3.47;1.88;;;20.90;47.80;;;;;;5104804;28;20054;-74
2021/12/10 01:10:48;;;;;;;3.88;2.00;;;20.90;47.80;;;;;;5103863;28;20040;-71
2021/12/10 01:13:18;;;;;;;2.67;1.90;;;20.90;47.80;;;;;;5104166;27;20059;-71
2021/12/10 01:24:08;;;;;;;4.13;2.20;;;20.90;47.80;;;;;;5102668;28;20118;-75
2021/12/10 01:29:12;;;;;;;4.55;2.10;;;20.90;47.80;;;;;;5104088;28;20044;-71
2021/12/10 01:31:39;;;;;;;4.10;2.10;;;20.90;47.80;;;;;;5102749;28;20039;-74
2021/12/10 01:34:06;;;;;;;2.47;1.67;;;20.90;47.80;;;;;;5104657;28;20096;-75
2021/12/10 01:36:33;;;;;;;2.77;1.90;;;20.90;47.80;;;;;;5104408;28;20059;-76
2021/12/10 01:38:58;;;;;;;2.75;1.73;;;20.80;47.70;;;;;;5103104;28;20396;-76
2021/12/10 01:41:29;;;;;;;3.10;1.80;;;20.80;47.80;;;;;;5103192;28;20644;-74
2021/12/10 01:44:01;;;;;;;3.13;1.80;;;20.90;47.80;;;;;;5101353;28;20252;-74
2021/12/10 01:46:29;;;;;;;3.00;1.90;;;20.80;47.70;;;;;;5102316;28;20039;-75
2021/12/10 01:48:56;;;;;;;;;;;20.90;47.80;;;;;;5104998;28;20053;-74
2021/12/10 01:51:27;;;;;;;5.18;1.80;;;20.90;47.80;;;;;;5103732;28;19929;-71
2021/12/10 01:53:55;;;;;;;3.05;1.80;;;20.80;47.70;;;;;;5104279;28;20044;-75
2021/12/10 01:56:26;;;;;;;3.72;2.05;;;20.80;47.70;;;;;;5101393;28;20489;-73
2021/12/10 01:58:52;;;;;;;3.53;1.75;;;20.80;47.70;;;;;;5103274;28;20077;-73
2021/12/10 02:01:24;;;;;;;3.58;1.90;;;20.80;47.80;;;;;;5104286;27;20438;-75
2021/12/10 02:03:52;;;;;;;3.13;1.70;;;20.80;47.70;;;;;;5105379;28;20071;-74
2021/12/10 02:06:18;;;;;;;3.58;1.60;;;20.80;47.70;;;;;;5100649;28;20039;-70
2021/12/10 02:08:44;;;;;;;3.53;1.77;;;20.80;47.70;;;;;;5091902;28;20043;-73
2021/12/10 02:11:10;;;;;;;2.78;1.85;;;20.80;47.70;;;;;;5098282;28;20073;-72
2021/12/10 02:13:37;;;;;;;2.38;1.77;;;20.90;47.80;;;;;;5103696;28;20047;-72
2021/12/10 02:16:04;;;;;;;5.10;1.90;;;20.80;47.70;;;;;;5103595;28;20082;-74
2021/12/10 02:18:30;;;;;;;2.80;1.80;;;20.80;47.70;;;;;;5098302;28;20047;-72
2021/12/10 02:21:02;;;;;;;3.63;1.73;;;20.80;47.70;;;;;;5129755;27;20897;-66
2021/12/10 02:23:31;;;;;;;3.22;1.80;;;20.80;47.60;;;;;;5102227;28;20461;-74
2021/12/10 02:25:58;;;;;;;2.80;1.88;;;20.80;47.60;;;;;;5104361;28;20127;-72
2021/12/10 02:28:24;;;;;;;2.30;1.80;;;20.90;47.60;;;;;;5100958;28;20031;-71
2021/12/10 02:30:49;;;;;;;4.47;1.70;;;20.90;47.50;;;;;;5101287;28;20096;-75
2021/12/10 02:33:16;;;;;;;4.05;1.92;;;20.90;47.50;;;;;;5100900;28;20047;-74
2021/12/10 02:35:43;;;;;;;2.88;1.80;;;20.90;47.50;;;;;;5102895;28;20075;-74
2021/12/10 02:38:09;;;;;;;3.35;1.77;;;20.90;47.50;;;;;;5103892;28;20059;-71
2021/12/10 02:40:37;;;;;;;3.30;1.48;;;20.90;47.50;;;;;;5100573;28;20087;-72
2021/12/10 02:43:11;;;;;;;3.53;1.65;;;20.90;47.40;;;;;;5104294;28;20039;-73
2021/12/10 02:45:37;;;;;;;2.78;1.67;;;20.90;47.40;;;;;;5100911;28;20244;-75
2021/12/10 02:48:05;;;;;;;2.55;1.60;;;20.90;47.50;;;;;;5095454;28;20043;-75
2021/12/10 02:50:32;;;;;;;4.20;1.90;;;20.80;47.50;;;;;;5102865;28;20036;-75
2021/12/10 02:52:58;;;;;;;5.75;1.70;;;20.80;47.50;;;;;;5104537;28;20155;-73
2021/12/10 02:55:24;;;;;;;4.28;1.60;;;20.80;47.50;;;;;;5101145;28;20039;-75
2021/12/10 02:57:55;;;;;;;3.65;1.63;;;20.90;47.50;;;;;;5102742;28;20073;-74
2021/12/10 03:00:29;;;;;;;4.50;1.80;;;20.80;47.50;;;;;;5097552;28;20079;-74
2021/12/10 03:02:55;;;;;;;3.65;1.70;;;20.90;47.40;;;;;;5103277;28;20088;-74
2021/12/10 03:05:21;;;;;;;3.35;1.83;;;20.90;47.40;;;;;;5101462;28;20051;-74
2021/12/10 03:07:47;;;;;;;4.65;1.85;;;20.90;47.30;;;;;;5102555;28;20048;-71
2021/12/10 03:10:18;;;;;;;3.25;1.75;;;20.90;47.30;;;;;;5098979;28;20050;-70
2021/12/10 03:12:45;;;;;;;3.25;1.50;;;20.90;47.30;;;;;;5102923;28;20130;-74
2021/12/10 03:15:11;;;;;;;5.65;1.92;;;20.80;47.30;;;;;;5102600;28;21048;-73
2021/12/10 03:17:36;;;;;;;3.20;1.67;;;20.80;47.20;;;;;;5099930;28;20048;-69
2021/12/10 03:20:07;;;;;;;4.40;1.70;;;20.80;47.30;;;;;;5103045;28;20080;-74
2021/12/10 03:22:33;;;;;;;3.70;1.60;;;20.80;47.30;;;;;;5098412;28;20414;-75
2021/12/10 03:24:59;;;;;;;3.35;1.63;;;20.80;47.30;;;;;;5102518;28;20147;-75
2021/12/10 03:27:25;;;;;;;2.97;1.50;;;20.80;47.30;;;;;;5103383;28;20039;-73
2021/12/10 03:29:52;;;;;;;2.30;1.50;;;20.80;47.30;;;;;;5100509;28;20167;-75
2021/12/10 03:32:24;;;;;;;3.80;1.50;;;20.80;47.30;;;;;;5101440;28;20047;-75
2021/12/10 03:34:51;;;;;;;2.38;1.50;;;20.80;47.30;;;;;;5103486;28;20036;-74
2021/12/10 03:37:17;;;;;;;1.55;1.33;;;20.80;47.20;;;;;;5101396;28;20036;-74
2021/12/10 03:39:45;;;;;;;3.60;1.40;;;20.80;47.20;;;;;;5104480;28;20045;-74
2021/12/10 03:42:11;;;;;;;2.97;1.57;;;20.80;47.20;;;;;;5097959;28;20047;-75
2021/12/10 03:44:37;;;;;;;3.42;1.50;;;20.80;47.20;;;;;;5102326;28;20304;-74
2021/12/10 03:47:07;;;;;;;2.78;1.77;;;20.90;47.30;;;;;;5100913;28;20040;-74
2021/12/10 03:49:34;;;;;;;2.70;1.60;;;20.90;47.20;;;;;;5099680;28;20040;-73
2021/12/10 03:52:01;;;;;;;3.92;1.80;;;20.80;47.20;;;;;;5100989;28;20051;-70
2021/12/10 03:54:27;;;;;;;3.15;1.80;;;20.80;47.20;;;;;;5099457;28;20036;-76
2021/12/10 03:56:53;;;;;;;2.80;1.40;;;20.90;47.20;;;;;;5102971;28;20071;-75
2021/12/10 03:59:21;;;;;;;4.32;1.88;;;20.90;47.10;;;;;;5102432;28;20091;-74
2021/12/10 04:01:51;;;;;;;3.47;1.45;;;20.90;47.00;;;;;;5102377;28;20044;-76
2021/12/10 04:04:30;;;;;;;2.67;1.52;;;20.90;47.10;;;;;;5103044;28;20042;-75
2021/12/10 04:06:57;;;;;;;3.40;1.42;;;20.90;47.10;;;;;;5100733;28;20366;-75
2021/12/10 04:09:24;;;;;;;3.40;1.90;;;20.90;47.00;;;;;;5100023;28;20035;-72
2021/12/10 04:11:51;;;;;;;3.70;1.42;;;20.90;47.00;;;;;;5100800;28;20482;-74
2021/12/10 04:14:17;;;;;;;4.32;1.70;;;20.90;47.00;;;;;;5101906;28;20052;-74
2021/12/10 04:16:43;;;;;;;3.70;1.55;;;20.80;47.00;;;;;;5102063;28;20047;-75
2021/12/10 04:19:11;;;;;;;4.18;1.70;;;20.80;47.00;;;;;;5099995;28;20525;-73
2021/12/10 04:21:40;;;;;;;3.35;1.50;;;20.90;47.00;;;;;;5105343;28;20054;-71
2021/12/10 04:24:09;;;;;;;5.32;1.90;;;20.80;47.00;;;;;;5104734;28;20522;-73
2021/12/10 04:26:35;;;;;;;3.85;1.52;;;20.80;46.90;;;;;;5106929;27;20051;-69
2021/12/10 04:29:01;;;;;;;2.58;1.42;;;20.90;46.90;;;;;;5104697;28;20039;-75
2021/12/10 04:31:27;;;;;;;3.28;1.75;;;20.90;46.80;;;;;;5106062;28;20818;-75
2021/12/10 04:33:52;;;;;;;4.80;1.63;;;20.90;46.90;;;;;;5104110;28;20043;-74
2021/12/10 04:36:18;;;;;;;3.00;1.55;;;20.80;46.80;;;;;;5105550;28;20030;-74
2021/12/10 04:38:44;;;;;;;3.05;1.73;;;20.90;46.90;;;;;;5105488;28;20131;-72
2021/12/10 04:41:11;;;;;;;4.63;1.75;;;20.90;46.90;;;;;;5104411;28;20130;-75
2021/12/10 04:43:39;;;;;;;2.50;1.60;;;20.80;46.80;;;;;;5107141;28;20090;-72
2021/12/10 04:46:08;;;;;;;3.92;1.77;;;20.80;46.80;;;;;;5101133;28;20101;-75
2021/12/10 04:48:51;;;;;;;2.38;1.60;;;20.80;46.90;;;;;;5106854;28;20067;-75
2021/12/10 04:51:19;;;;;;;2.30;1.70;;;20.80;46.80;;;;;;5101580;28;20637;-75
2021/12/10 04:53:48;;;;;;;2.92;1.70;;;20.80;46.80;;;;;;5105151;28;20089;-74
2021/12/10 04:56:18;;;;;;;3.10;1.67;;;20.80;46.80;;;;;;5104024;28;20054;-72
2021/12/10 04:58:44;;;;;;;2.15;1.55;;;20.80;46.80;;;;;;5102398;28;20400;-75
2021/12/10 05:01:10;;;;;;;2.97;1.70;;;20.80;46.80;;;;;;5106147;28;20044;-75
2021/12/10 05:03:36;;;;;;;2.78;1.60;;;20.80;46.70;;;;;;5104474;28;20039;-76
2021/12/10 05:06:03;;;;;;;3.97;2.00;;;20.80;46.70;;;;;;5104145;28;20048;-70
2021/12/10 05:08:32;;;;;;;3.05;1.58;;;20.80;46.70;;;;;;5102577;28;20044;-73
2021/12/10 05:10:58;;;;;;;3.47;1.70;;;20.80;46.70;;;;;;5104509;28;20042;-71
2021/12/10 05:13:24;;;;;;;2.75;1.63;;;20.80;46.70;;;;;;5104507;28;20105;-73
2021/12/10 05:15:56;;;;;;;3.50;1.67;;;20.80;46.70;;;;;;5103441;28;20036;-72
2021/12/10 05:18:22;;;;;;;2.47;1.60;;;20.80;46.60;;;;;;5105559;27;20122;-74
2021/12/10 05:20:49;;;;;;;1.92;1.50;;;20.80;46.70;;;;;;5104033;28;20032;-70
2021/12/10 05:23:16;;;;;;;2.55;1.60;;;20.80;46.60;;;;;;5101248;28;20595;-75
2021/12/10 05:25:43;;;;;;;2.85;1.67;;;20.80;46.60;;;;;;5102059;28;20112;-70
2021/12/10 05:28:09;;;;;;;3.78;1.70;;;20.80;46.50;;;;;;5105291;28;20097;-72
2021/12/10 05:30:36;;;;;;;2.60;1.70;;;20.80;46.50;;;;;;5103971;28;20032;-69
2021/12/10 05:33:03;;;;;;;2.97;1.60;;;20.80;46.50;;;;;;5103844;28;20123;-71
2021/12/10 05:35:30;;;;;;;3.03;1.70;;;20.80;46.50;;;;;;5102041;28;20040;-73
2021/12/10 05:37:56;;;;;;;4.25;1.80;;;20.80;46.50;;;;;;5102584;28;20127;-68
2021/12/10 05:40:23;;;;;;;2.83;1.88;;;20.80;46.50;;;;;;5103418;28;20125;-68
2021/12/10 05:42:49;;;;;;;3.10;1.77;;;20.80;46.40;;;;;;5099911;28;20046;-71
2021/12/10 05:45:18;;;;;;;2.28;1.60;;;20.80;46.40;;;;;;5105422;28;20643;-69
2021/12/10 05:47:44;;;;;;;2.50;1.30;;;20.80;46.40;;;;;;5106222;28;20032;-69
2021/12/10 05:50:13;;;;;;;2.97;1.60;;;20.80;46.40;;;;;;5105611;28;20055;-70
2021/12/10 05:52:39;;;;;;;3.10;1.58;;;20.80;46.30;;;;;;5101821;28;20059;-75
2021/12/10 05:55:05;;;;;;;2.55;1.70;;;20.80;46.30;;;;;;5100711;28;20032;-66
2021/12/10 05:57:30;;;;;;;2.95;1.60;;;20.80;46.30;;;;;;5105072;28;20077;-75
2021/12/10 05:59:56;;;;;;;3.40;1.50;;;20.80;46.30;;;;;;5104446;28;20160;-75
2021/12/10 06:02:22;;;;;;;4.45;1.70;;;20.80;46.30;;;;;;5100583;28;20212;-70
2021/12/10 06:04:48;;;;;;;2.42;1.50;;;20.80;46.20;;;;;;5096799;28;20566;-72
2021/12/10 06:07:13;;;;;;;2.53;1.73;;;20.80;46.20;;;;;;5103594;28;20144;-67
2021/12/10 06:09:42;;;;;;;2.72;1.63;;;20.80;46.10;;;;;;5101933;28;20039;-74
2021/12/10 06:12:09;;;;;;;2.55;1.63;;;20.80;46.10;;;;;;5097891;28;20213;-71
2021/12/10 06:14:34;;;;;;;2.55;1.60;;;20.80;46.10;;;;;;5088838;27;20344;-73
2021/12/10 06:17:00;;;;;;;2.35;1.40;;;20.80;46.10;;;;;;5101847;28;20636;-68
2021/12/10 06:19:26;;;;;;;2.35;1.55;;;20.90;46.20;;;;;;5103681;28;20441;-67
2021/12/10 06:21:54;;;;;;;3.63;1.60;;;20.90;46.20;;;;;;5099386;28;20097;-70
2021/12/10 06:24:20;;;;;;;2.00;1.42;;;20.80;46.30;;;;;;5100316;28;20040;-71
2021/12/10 06:26:48;;;;;;;2.25;1.65;;;20.80;46.30;;;;;;5103541;28;20119;-68
2021/12/10 06:29:14;;;;;;;1.85;1.58;;;20.80;46.20;;;;;;5101540;28;20104;-68
2021/12/10 06:31:40;;;;;;;2.17;1.45;;;20.90;46.20;;;;;;5099667;27;20779;-67
2021/12/10 06:34:06;;;;;;;2.30;1.30;;;20.90;46.20;;;;;;5098601;28;20046;-75
2021/12/10 06:36:31;;;;;;;2.30;1.55;;;20.80;46.20;;;;;;5086369;28;20531;-75
2021/12/10 06:39:00;;;;;;;1.80;1.45;;;20.80;46.20;;;;;;5097607;28;20035;-69
2021/12/10 06:41:25;;;;;;;2.10;1.50;;;20.80;46.30;;;;;;5100765;28;20083;-72
2021/12/10 06:43:51;;;;;;;5.07;1.50;;;20.90;47.00;;;;;;5089872;28;20131;-70
2021/12/10 06:46:17;;;;;;;2.15;1.40;;;20.90;46.20;;;;;;5100588;28;20499;-69
2021/12/10 06:48:43;;;;;;;1.42;1.30;;;20.90;46.20;;;;;;5099393;28;20047;-71
2021/12/10 06:51:16;;;;;;;4.05;1.27;;;20.90;46.20;;;;;;5103946;27;20088;-69
2021/12/10 06:53:43;;;;;;;2.28;1.40;;;20.90;46.20;;;;;;5097740;28;20517;-74
2021/12/10 06:56:10;;;;;;;2.85;1.65;;;20.90;46.10;;;;;;5095339;27;20502;-70
2021/12/10 06:58:36;;;;;;;2.28;1.40;;;20.90;46.10;;;;;;5099750;28;20035;-72
2021/12/10 07:01:12;;;;;;;1.60;1.17;;;20.90;46.10;;;;;;5098896;28;20054;-71
2021/12/10 07:03:40;;;;;;;2.90;1.40;;;20.90;46.20;;;;;;5098142;28;20739;-78
2021/12/10 07:06:06;;;;;;;1.98;1.45;;;20.90;46.30;;;;;;5102969;28;20130;-66
2021/12/10 07:08:35;;;;;;;2.90;1.55;;;20.90;46.30;;;;;;5099802;28;20043;-70
2021/12/10 07:11:00;;;;;;;6.45;1.45;;;20.90;46.30;;;;;;5101191;28;20515;-70
2021/12/10 07:13:34;;;;;;;2.15;1.35;;;20.90;46.30;;;;;;5100418;28;20514;-72
2021/12/10 07:16:00;;;;;;;2.17;1.52;;;20.90;46.40;;;;;;5093366;28;20475;-71
2021/12/10 07:18:26;;;;;;;3.28;1.30;;;20.90;46.50;;;;;;5102739;28;20146;-71
2021/12/10 07:20:52;;;;;;;2.78;1.20;;;20.90;46.40;;;;;;5105171;28;20051;-72
2021/12/10 07:23:20;;;;;;;2.75;1.33;;;20.90;46.40;;;;;;5104336;28;20629;-72
2021/12/10 07:25:47;;;;;;;1.85;1.27;;;20.90;46.40;;;;;;5100793;28;20412;-74
2021/12/10 07:28:13;;;;;;;3.67;1.40;;;20.90;46.40;;;;;;5101619;28;20042;-72
2021/12/10 07:30:39;;;;;;;2.20;1.33;;;21.00;46.40;;;;;;5096161;28;20144;-72
2021/12/10 07:33:06;;;;;;;3.10;1.50;;;20.90;46.30;;;;;;5096399;28;20135;-76
2021/12/10 07:35:32;;;;;;;2.47;1.30;;;20.90;46.30;;;;;;5098153;28;20656;-75
2021/12/10 07:37:58;;;;;;;2.53;1.27;;;21.00;46.30;;;;;;5101976;28;20082;-79
2021/12/10 07:40:27;;;;;;;3.28;1.40;;;21.00;46.20;;;;;;5101355;28;20031;-78
2021/12/10 07:42:53;;;;;;;2.72;1.45;;;21.00;46.20;;;;;;5100536;28;20084;-77
2021/12/10 07:45:19;;;;;;;2.92;1.40;;;21.00;47.00;;;;;;5103078;28;20051;-76
2021/12/10 07:47:49;;;;;;;1.85;1.27;;;21.00;46.10;;;;;;5103482;28;20650;-75
2021/12/10 07:50:18;;;;;;;2.72;1.20;;;21.00;46.20;;;;;;5098883;28;20074;-75
2021/12/10 07:52:45;;;;;;;4.05;1.42;;;21.00;46.10;;;;;;5097027;28;20115;-75
2021/12/10 07:55:15;;;;;;;2.45;1.30;;;21.00;46.10;;;;;;5100138;28;20039;-75
2021/12/10 07:57:42;;;;;;;1.13;0.90;;;21.00;46.00;;;;;;5102266;28;20626;-75
2021/12/10 08:00:12;;;;;;;2.92;1.17;;;21.00;46.00;;;;;;5101809;28;20575;-76
2021/12/10 08:02:38;;;;;;;2.53;1.20;;;21.00;45.90;;;;;;5105799;27;20047;-78
2021/12/10 08:05:05;;;;;;;2.42;1.10;;;21.10;45.90;;;;;;5098854;27;20052;-73
2021/12/10 08:07:31;;;;;;;2.45;1.30;;;21.10;45.90;;;;;;5071101;27;20141;-76
2021/12/10 08:09:56;;;;;;;2.75;1.20;;;21.10;45.80;;;;;;5100010;28;20047;-74
2021/12/10 08:12:22;;;;;;;2.13;1.20;;;21.10;45.90;;;;;;5093193;28;20039;-75
2021/12/10 08:14:52;;;;;;;2.33;1.30;;;21.10;45.80;;;;;;5094569;27;20163;-75
2021/12/10 08:17:19;;;;;;;2.20;1.20;;;21.20;45.80;;;;;;5102255;28;20040;-73
2021/12/10 08:19:47;;;;;;;8.60;1.20;;;21.20;45.70;;;;;;5102297;28;20051;-68
2021/12/10 08:22:18;;;;;;;3.00;1.00;;;21.20;45.60;;;;;;5104232;28;20036;-70
2021/12/10 08:24:44;;;;;;;1.63;1.10;;;21.20;45.50;;;;;;5096760;27;20043;-68
2021/12/10 08:27:11;;;;;;;1.95;1.35;;;21.20;45.40;;;;;;5097903;27;20036;-73
2021/12/10 08:29:37;;;;;;;1.98;1.30;;;21.20;45.20;;;;;;5095661;28;20043;-69
2021/12/10 08:32:03;;;;;;;2.05;1.20;;;21.30;44.90;;;;;;5083669;28;20398;-72
2021/12/10 08:34:29;;;;;;;2.45;1.30;;;21.30;44.80;;;;;;5085227;28;20035;-71
2021/12/10 08:36:55;;;;;;;1.63;1.13;;;21.30;44.60;;;;;;5100738;28;20044;-70
2021/12/10 08:39:21;;;;;;;3.38;1.60;;;21.40;44.40;;;;;;5104116;28;20071;-76
2021/12/10 08:41:47;;;;;;;3.80;1.40;;;21.50;44.30;;;;;;5093271;28;20048;-75
2021/12/10 08:44:13;;;;;;;2.38;1.35;;;21.50;44.20;;;;;;5107741;28;20483;-74
2021/12/10 08:46:42;;;;;;;3.58;1.40;;;21.50;44.20;;;;;;5105054;28;20439;-74
2021/12/10 08:49:08;;;;;;;4.95;1.30;;;21.50;44.20;;;;;;5107913;28;20052;-75
2021/12/10 08:51:39;;;;;;;3.83;1.60;;;21.50;44.20;;;;;;5095626;28;20043;-71
2021/12/10 08:54:06;;;;;;;4.25;1.73;;;21.50;44.20;;;;;;5095763;28;20153;-73
2021/12/10 08:56:33;;;;;;;5.65;2.03;;;21.50;44.10;;;;;;5097369;28;20071;-73
2021/12/10 08:59:00;;;;;;;4.30;1.90;;;21.40;44.00;;;;;;5102672;28;20044;-74
2021/12/10 09:01:33;;;;;;;8.57;1.83;;;21.40;44.00;;;;;;5100129;28;20048;-75
2021/12/10 09:04:01;;;;;;;8.52;2.28;;;21.40;43.90;;;;;;5098860;28;20214;-74
2021/12/10 09:06:31;;;;;;;5.65;2.03;;;21.40;43.90;;;;;;5093957;28;20067;-74
2021/12/10 09:08:58;;;;;;;4.30;1.90;;;21.40;43.90;;;;;;5102610;28;20612;-71
2021/12/10 09:11:24;;;;;;;6.38;1.90;;;21.40;43.90;;;;;;5097489;28;21035;-73
2021/12/10 09:13:50;;;;;;;4.30;1.75;;;21.40;43.90;;;;;;5098213;27;20040;-75
2021/12/10 09:16:24;;;;;;;5.80;1.63;;;21.40;43.80;;;;;;5096221;28;20096;-75
2021/12/10 09:18:53;;;;;;;7.95;2.10;;;21.40;43.70;;;;;;5105750;28;20039;-71
2021/12/10 09:21:19;;;;;;;4.65;1.75;;;21.40;43.70;;;;;;5103553;27;20761;-74
2021/12/10 09:23:45;;;;;;;3.17;1.60;;;21.40;43.70;;;;;;5087438;27;20055;-74
2021/12/10 09:26:14;;;;;;;4.93;2.15;;;21.40;43.70;;;;;;5101479;28;20047;-73
2021/12/10 09:28:42;;;;;;;4.13;2.08;;;21.40;43.70;;;;;;5101962;28;20044;-73
2021/12/10 09:31:09;;;;;;;5.57;1.63;;;21.40;43.60;;;;;;5095714;28;20057;-75
2021/12/10 09:33:35;;;;;;;4.35;1.70;;;21.40;43.60;;;;;;5104764;28;20043;-74
2021/12/10 09:36:05;;;;;;;4.25;1.63;;;21.40;44.40;;;;;;5100909;28;20050;-76
2021/12/10 09:38:31;;;;;;;4.22;1.70;;;21.40;43.50;;;;;;5105683;28;20039;-76
2021/12/10 09:41:02;;;;;;;6.63;1.80;;;21.40;43.50;;;;;;5138692;27;20048;-76
2021/12/10 09:43:33;;;;;;;4.50;1.75;;;21.40;43.40;;;;;;5101432;28;20380;-67
2021/12/10 09:46:00;;;;;;;4.03;1.92;;;21.40;43.40;;;;;;5125508;27;20372;-74
2021/12/10 09:48:26;;;;;;;3.88;1.90;;;21.40;43.30;;;;;;5100609;28;20118;-72
2021/12/10 09:51:03;;;;;;;3.90;1.60;;;21.40;43.30;;;;;;5094992;28;20400;-71
2021/12/10 09:53:30;;;;;;;5.90;1.80;;;21.40;43.20;;;;;;5105139;28;20047;-67
2021/12/10 09:55:57;;;;;;;5.05;2.05;;;21.40;43.40;;;;;;5103453;27;20848;-72
2021/12/10 09:58:23;;;;;;;5.60;1.58;;;21.40;43.50;;;;;;5098089;28;20050;-71
2021/12/10 10:00:55;;;;;;;3.85;1.60;;;21.40;43.60;;;;;;5128180;27;20504;-72
2021/12/10 10:03:26;;;;;;;6.40;1.90;;;21.40;43.60;;;;;;5084882;28;20467;-74
2021/12/10 10:05:52;;;;;;;4.03;1.70;;;21.40;43.70;;;;;;5105099;28;20608;-77
2021/12/10 10:08:22;;;;;;;5.63;1.55;;;21.50;43.70;;;;;;5101853;28;20123;-72
2021/12/10 10:10:50;;;;;;;4.70;1.70;;;21.40;43.60;;;;;;5100680;28;20433;-75
2021/12/10 10:13:23;;;;;;;5.25;1.45;;;21.40;43.70;;;;;;5097539;28;20495;-74
2021/12/10 10:15:53;;;;;;;5.88;1.60;;;21.40;43.80;;;;;;5102801;28;20047;-72
2021/12/10 10:18:20;;;;;;;4.75;1.50;;;21.40;43.90;;;;;;5103822;28;20043;-71
2021/12/10 10:20:50;;;;;;;6.53;1.60;;;21.40;44.00;;;;;;5100825;28;20078;-72
2021/12/10 10:23:16;;;;;;;4.68;1.35;;;21.50;44.20;;;;;;5105793;28;20047;-75
2021/12/10 10:25:45;;;;;;;6.28;1.58;;;21.40;44.10;;;;;;5101737;28;20130;-77
2021/12/10 10:28:12;;;;;;;3.95;1.40;;;21.40;44.10;;;;;;5107347;28;20495;-78
2021/12/10 10:30:42;;;;;;;3.05;1.30;;;21.50;44.10;;;;;;5106313;28;20561;-75
2021/12/10 10:33:11;;;;;;;4.93;1.40;;;21.50;44.20;;;;;;5103413;28;20151;-72
2021/12/10 10:35:41;;;;;;;4.97;1.48;;;21.50;44.20;;;;;;5106169;28;20062;-75
2021/12/10 10:38:09;;;;;;;3.45;1.50;;;21.50;44.30;;;;;;5103566;28;20399;-71
2021/12/10 10:40:39;;;;;;;4.63;1.50;;;21.50;44.40;;;;;;5102211;28;20043;-72
2021/12/10 10:43:08;;;;;;;4.10;1.60;;;21.50;44.40;;;;;;5095439;27;20048;-73
2021/12/10 10:45:36;;;;;;;5.63;1.38;;;21.50;44.40;;;;;;5129779;27;20044;-72
2021/12/10 10:48:04;;;;;;;3.58;1.25;;;21.50;44.40;;;;;;5097430;28;20047;-72
2021/12/10 10:50:37;;;;;;;4.78;1.52;;;21.50;44.50;;;;;;5099469;28;20835;-73
2021/12/10 10:53:12;;;;;;;3.97;1.55;;;21.50;44.50;;;;;;5104606;28;20046;-73
2021/12/10 10:55:48;;;;;;;6.70;1.40;;;21.40;44.50;;;;;;5113566;27;20055;-73
2021/12/10 10:58:16;;;;;;;3.55;1.25;;;21.40;44.40;;;;;;5089631;28;20044;-74
2021/12/10 11:03:39;;;;;;;10.57;1.38;;;21.40;43.80;;;;;;5119143;27;20373;-76
2021/12/10 11:06:12;;;;;;;9.63;1.77;;;21.40;44.30;;;;;;5098533;28;20120;-74
2021/12/10 11:08:46;;;;;;;4.90;1.50;;;21.40;44.20;;;;;;5098262;28;20039;-74
2021/12/10 11:11:18;;;;;;;4.65;1.20;;;21.40;44.30;;;;;;5133147;27;20058;-72
2021/12/10 11:13:47;;;;;;;3.45;1.42;;;21.40;44.30;;;;;;5133808;27;20050;-72
2021/12/10 11:16:18;;;;;;;6.80;1.30;;;21.30;44.30;;;;;;5101433;27;20163;-73
2021/12/10 11:18:52;;;;;;;7.72;1.33;;;21.30;44.40;;;;;;5094911;28;20028;-72
2021/12/10 11:21:34;;;;;;;5.15;1.75;;;21.30;44.50;;;;;;5112836;27;20035;-73
2021/12/10 11:24:08;;;;;;;9.15;2.15;;;21.30;44.70;;;;;;5095982;28;20059;-72
2021/12/10 11:26:52;;;;;;;14.35;2.00;;;21.40;44.70;;;;;;5100061;28;20036;-73
2021/12/10 11:29:39;;;;;;;6.15;1.70;;;21.40;44.70;;;;;;5100550;28;20079;-71
2021/12/10 11:32:15;;;;;;;7.18;1.80;;;21.50;44.70;;;;;;5099440;28;20039;-74
2021/12/10 11:34:52;;;;;;;5.78;1.70;;;21.50;44.60;;;;;;5080840;28;20036;-72
2021/12/10 11:37:46;;;;;;;8.35;2.00;;;21.60;44.60;;;;;;5099494;28;20052;-70
2021/12/10 11:40:40;;;;;;;10.77;2.05;;;21.60;44.60;;;;;;5093069;28;20118;-71
2021/12/10 11:43:33;;;;;;;11.85;1.90;;;21.60;44.40;;;;;;5096312;28;20568;-71
2021/12/10 11:46:47;;;;;;;11.23;1.95;;;21.60;44.30;;;;;;5131449;27;20059;-73
2021/12/10 11:49:33;;;;;;;6.68;1.83;;;21.60;44.30;;;;;;5098707;28;20066;-71
2021/12/10 11:52:04;;;;;;;8.02;1.58;;;21.60;44.40;;;;;;5095398;28;20052;-73
2021/12/10 11:54:43;;;;;;;6.97;1.70;;;21.50;44.40;;;;;;5098431;28;20061;-71
2021/12/10 11:57:14;;;;;;;9.27;1.63;;;21.50;44.50;;;;;;5095857;28;20058;-73
2021/12/10 12:00:04;;;;;;;8.50;1.80;;;21.50;44.50;;;;;;5098199;28;20108;-73
2021/12/10 12:02:37;;;;;;;7.50;1.55;;;21.50;44.50;;;;;;5096085;28;20048;-74
2021/12/10 12:05:16;;;;;;;3.60;1.42;;;21.50;44.60;;;;;;5099693;28;20075;-76
2021/12/10 12:07:44;;;;;;;5.13;1.60;;;21.40;44.60;;;;;;5103406;28;20042;-73
2021/12/10 12:10:26;;;;;;;8.63;1.65;;;21.40;44.60;;;;;;5091230;28;20040;-73
2021/12/10 12:12:58;;;;;;;4.85;1.48;;;21.40;44.70;;;;;;5105186;28;20032;-73
2021/12/10 12:15:35;;;;;;;5.28;1.40;;;21.40;44.80;;;;;;5080765;28;20132;-73
2021/12/10 12:18:05;;;;;;;4.80;1.52;;;21.30;44.80;;;;;;5092834;28;20036;-73
2021/12/10 12:20:47;;;;;;;3.08;1.30;;;21.30;44.90;;;;;;5115129;27;20554;-71
2021/12/10 12:26:16;;;;;;;5.22;1.70;;;21.30;45.10;;;;;;5081857;28;20150;-73
2021/12/10 12:28:50;;;;;;;8.55;1.50;;;21.30;45.10;;;;;;5087123;28;20040;-73
2021/12/10 12:31:21;;;;;;;5.07;1.80;;;21.30;45.20;;;;;;5083045;28;20126;-73
2021/12/10 12:34:15;;;;;;;4.78;1.73;;;21.30;45.20;;;;;;5081997;28;20051;-73
2021/12/10 12:37:00;;;;;;;3.58;1.60;;;21.30;45.40;;;;;;5117480;27;20503;-73
2021/12/10 12:39:37;;;;;;;6.57;1.55;;;21.30;45.60;;;;;;5082981;28;20046;-74
2021/12/10 12:42:19;;;;;;;6.22;1.58;;;21.30;45.70;;;;;;5100845;28;20136;-74
2021/12/10 12:44:46;;;;;;;5.93;1.67;;;21.30;45.90;;;;;;5121684;27;20032;-74
2021/12/10 12:47:28;;;;;;;4.07;1.50;;;21.30;45.80;;;;;;5082275;28;20093;-73
2021/12/10 12:50:08;;;;;;;4.40;1.50;;;21.30;45.90;;;;;;5084635;28;20048;-70
2021/12/10 12:52:41;;;;;;;7.88;1.65;;;21.30;46.20;;;;;;5124810;27;20142;-72
2021/12/10 12:55:14;;;;;;;5.15;1.67;;;21.30;46.20;;;;;;5082985;28;20039;-72
2021/12/10 12:57:45;;;;;;;4.50;1.60;;;21.30;46.30;;;;;;5083580;28;20458;-72
2021/12/10 13:00:28;;;;;;;3.40;1.30;;;21.30;46.30;;;;;;5097335;28;20044;-71
2021/12/10 13:03:05;;;;;;;8.00;1.20;;;21.30;46.60;;;;;;5082588;28;20146;-72
2021/12/10 13:05:49;;;;;;;6.15;1.50;;;21.30;46.60;;;;;;5082863;28;20553;-74
2021/12/10 13:08:18;;;;;;;4.45;1.35;;;21.30;46.60;;;;;;5084290;28;20059;-72
2021/12/10 13:10:51;;;;;;;2.78;1.35;;;21.30;46.70;;;;;;5082363;28;20048;-71
2021/12/10 13:13:36;;;;;;;3.00;1.40;;;21.30;46.80;;;;;;5084404;28;20448;-71
2021/12/10 13:16:02;;;;;;;2.47;1.20;;;21.30;47.20;;;;;;5081370;28;20062;-70